Time;durP1;ratioP1;P1;durP2;ratioP2;P2;SDS_P1;SDS_P2;PMS_P1;PMS_P2;Temp;Humidity;BMP_temperature;BMP_pressure;BME280_temperature;BME280_humidity;BME280_pressure;Samples;Min_cycle;Max_cycle;Signal;HPM_P1;HPM_P2
2023/07/11 00:01:00;;;;;;;6.60;3.20;;;;;;;23.97;44.85;101587.59;4949779;28;114015;-83
2023/07/11 00:03:27;;;;;;;6.05;3.35;;;;;;;23.96;44.69;101580.44;4967542;28;123373;-83
2023/07/11 00:06:00;;;;;;;5.88;3.20;;;;;;;23.92;44.75;101582.56;4954067;28;123951;-83
2023/07/11 00:08:28;;;;;;;6.38;3.10;;;;;;;23.90;44.99;101580.03;4949303;28;113520;-83
2023/07/11 00:10:55;;;;;;;7.47;4.00;;;;;;;23.89;44.91;101572.88;4932928;28;114028;-83
2023/07/11 00:13:23;;;;;;;7.05;3.30;;;;;;;23.86;44.78;101573.16;4953729;28;123330;-83
2023/07/11 00:15:59;;;;;;;9.00;3.10;;;;;;;23.83;44.85;101568.03;4937204;28;125491;-83
2023/07/11 00:18:26;;;;;;;8.73;3.67;;;;;;;23.81;44.91;101567.31;4967923;28;114663;-83
2023/07/11 00:20:53;;;;;;;5.40;3.05;;;;;;;23.78;45.06;101562.16;4952371;28;113921;-83
2023/07/11 00:23:20;;;;;;;7.80;3.30;;;;;;;23.77;44.96;101562.28;4950813;28;124872;-83
2023/07/11 00:25:48;;;;;;;7.00;3.15;;;;;;;23.75;45.09;101565.13;4935473;28;125485;-83
2023/07/11 00:28:15;;;;;;;7.13;3.50;;;;;;;23.74;45.21;101562.56;4951110;28;114544;-83
2023/07/11 00:30:42;;;;;;;4.88;3.10;;;;;;;23.71;45.30;101563.69;4952291;28;112466;-83
2023/07/11 00:33:10;;;;;;;6.75;3.63;;;;;;;23.69;45.10;101554.84;4949945;28;123865;-83
2023/07/11 00:35:37;;;;;;;8.13;3.33;;;;;;;23.67;45.36;101551.44;4939979;28;124154;-83
2023/07/11 00:38:06;;;;;;;7.93;3.40;;;;;;;23.64;45.36;101558.00;4964306;28;114443;-83
2023/07/11 00:40:39;;;;;;;4.78;3.17;;;;;;;23.62;45.30;101554.56;4939796;28;112048;-83
2023/07/11 00:43:11;;;;;;;5.97;3.30;;;;;;;23.60;45.47;101551.16;4959588;28;124884;-83
2023/07/11 00:46:11;;;;;;;5.40;3.35;;;;;;;23.58;45.51;101547.69;4943770;28;122982;-83
2023/07/11 00:48:44;;;;;;;6.30;3.35;;;;;;;23.57;45.54;101555.97;4944347;28;115043;-83
2023/07/11 00:51:15;;;;;;;9.43;3.55;;;;;;;23.54;45.50;101554.38;4934692;28;114942;-83
2023/07/11 00:53:43;;;;;;;7.03;3.38;;;;;;;23.51;45.54;101552.81;4962418;28;123950;-84
2023/07/11 00:56:16;;;;;;;9.32;3.60;;;;;;;23.49;45.83;101546.69;4975111;28;124268;-83
2023/07/11 00:58:45;;;;;;;6.53;3.22;;;;;;;23.48;45.66;101558.47;4975170;28;114635;-83
2023/07/11 01:01:13;;;;;;;6.90;3.70;;;;;;;23.46;45.51;101549.66;4968986;28;112301;-83
2023/07/11 01:03:41;;;;;;;5.63;3.50;;;;;;;23.43;45.71;101555.34;4964558;28;122926;-83
2023/07/11 01:06:13;;;;;;;6.25;3.53;;;;;;;23.41;45.87;101554.59;4954509;28;124073;-82
2023/07/11 01:08:43;;;;;;;5.95;3.47;;;;;;;23.39;45.78;101553.88;4935439;28;115105;-83
2023/07/11 01:11:11;;;;;;;7.07;3.55;;;;;;;23.38;45.64;101551.34;4935439;28;114864;-83
2023/07/11 01:13:38;;;;;;;5.82;3.45;;;;;;;23.36;45.95;101556.88;4945198;28;124868;-83
2023/07/11 01:16:06;;;;;;;6.32;3.67;;;;;;;23.35;45.91;101555.16;4951759;28;125155;-83
2023/07/11 01:18:34;;;;;;;5.45;3.58;;;;;;;23.33;45.92;101554.44;4935478;28;113639;-83
2023/07/11 01:21:06;;;;;;;4.78;3.13;;;;;;;23.30;46.10;101555.56;4934976;28;113969;-83
2023/07/11 01:23:34;;;;;;;6.30;3.70;;;;;;;23.28;46.26;101551.28;4934610;28;123690;-83
2023/07/11 01:26:04;;;;;;;9.80;3.90;;;;;;;23.25;46.13;101543.44;4934245;28;125825;-83
2023/07/11 01:28:32;;;;;;;8.13;3.80;;;;;;;23.21;46.15;101550.97;4951075;28;115564;-83
2023/07/11 01:31:00;;;;;;;4.90;3.58;;;;;;;23.19;46.18;101557.47;4951842;28;113645;-83
2023/07/11 01:33:28;;;;;;;7.43;3.85;;;;;;;23.15;46.26;101546.09;4951608;28;123639;-83
2023/07/11 01:35:55;;;;;;;6.22;3.80;;;;;;;23.14;46.38;101544.38;4978927;28;123629;-83
2023/07/11 01:38:24;;;;;;;9.82;3.90;;;;;;;23.13;46.35;101543.53;4957730;28;114453;-83
2023/07/11 01:40:51;;;;;;;6.47;3.70;;;;;;;23.12;46.21;101536.41;4936875;28;113709;-85
2023/07/11 01:43:19;;;;;;;5.50;3.58;;;;;;;23.10;46.35;101532.97;4926786;28;124143;-83
2023/07/11 01:45:47;;;;;;;6.05;3.70;;;;;;;23.07;46.55;101527.84;4961129;28;123713;-83
2023/07/11 01:48:14;;;;;;;8.15;4.03;;;;;;;23.04;46.64;101528.13;4939365;28;115216;-83
2023/07/11 01:50:41;;;;;;;7.85;4.07;;;;;;;23.02;46.45;101524.66;4947357;28;112113;-84
2023/07/11 01:53:08;;;;;;;7.15;4.22;;;;;;;22.99;46.66;101524.91;4952062;28;124077;-83
2023/07/11 01:55:36;;;;;;;10.15;3.65;;;;;;;22.98;46.78;101522.34;4972671;28;123929;-83
2023/07/11 01:58:05;;;;;;;6.32;3.97;;;;;;;22.93;46.69;101512.81;4929047;28;116029;-83
2023/07/11 02:00:32;;;;;;;5.78;3.88;;;;;;;22.91;46.89;101511.25;4936825;28;114861;-83
2023/07/11 02:02:59;;;;;;;6.97;3.85;;;;;;;22.85;46.76;101506.34;4937660;28;123240;-83
2023/07/11 02:05:26;;;;;;;7.13;3.88;;;;;;;22.79;46.91;101501.47;4954530;28;122877;-83
2023/07/11 02:07:54;;;;;;;9.18;4.40;;;;;;;22.73;47.23;101495.66;4954312;28;115014;-83
2023/07/11 02:10:21;;;;;;;7.30;3.92;;;;;;;22.69;47.24;101488.78;4955027;28;112990;-83
2023/07/11 02:12:48;;;;;;;7.45;3.78;;;;;;;22.65;47.29;101490.03;4930650;28;126281;-83
2023/07/11 02:15:15;;;;;;;6.90;4.32;;;;;;;22.61;47.45;101476.94;4956721;28;123795;-83
2023/07/11 02:17:43;;;;;;;5.80;4.03;;;;;;;22.57;47.58;101484.44;4941788;28;112632;-83
2023/07/11 02:20:11;;;;;;;7.80;4.18;;;;;;;22.52;47.60;101478.56;4940733;28;114421;-84
2023/07/11 02:22:39;;;;;;;6.57;3.80;;;;;;;22.49;47.76;101473.44;4956910;28;124283;-83
2023/07/11 02:25:07;;;;;;;5.07;3.80;;;;;;;22.47;47.88;101475.41;4954314;28;123457;-83
2023/07/11 02:27:34;;;;;;;6.60;3.60;;;;;;;22.43;48.01;101473.97;4958108;28;114668;-84
2023/07/11 02:30:01;;;;;;;5.63;3.85;;;;;;;22.41;48.13;101470.53;4942753;28;114015;-84
2023/07/11 02:32:28;;;;;;;7.68;3.85;;;;;;;22.37;47.98;101472.63;4956136;28;125295;-83
2023/07/11 02:34:56;;;;;;;6.45;3.88;;;;;;;22.36;48.10;101476.34;4957263;28;125954;-83
2023/07/11 02:37:23;;;;;;;6.97;3.78;;;;;;;22.33;48.08;101468.50;4970551;28;113448;-83
2023/07/11 02:39:50;;;;;;;8.07;4.10;;;;;;;22.32;48.32;101467.66;4959666;28;114010;-83
2023/07/11 02:42:17;;;;;;;6.13;3.70;;;;;;;22.33;48.15;101472.03;4959969;28;124019;-83
2023/07/11 02:44:45;;;;;;;9.35;4.03;;;;;;;22.31;48.25;101471.31;4939813;28;123335;-84
2023/07/11 02:47:12;;;;;;;10.45;4.28;;;;;;;22.29;48.26;101459.81;4944048;28;113982;-83
2023/07/11 02:49:40;;;;;;;8.75;4.00;;;;;;;22.28;48.47;101466.19;4959662;28;114030;-83
2023/07/11 02:52:10;;;;;;;7.20;3.80;;;;;;;22.28;48.46;101458.09;4961207;28;123178;-84
2023/07/11 02:54:38;;;;;;;8.45;4.45;;;;;;;22.25;48.35;101454.78;4948658;28;125084;-84
2023/07/11 02:57:10;;;;;;;6.65;4.25;;;;;;;22.20;48.44;101452.44;4939606;28;112481;-83
2023/07/11 02:59:37;;;;;;;7.18;4.10;;;;;;;22.16;48.36;101445.59;4925170;28;115347;-83
2023/07/11 03:02:05;;;;;;;7.32;4.20;;;;;;;22.13;48.53;101451.25;4936898;28;124288;-83
2023/07/11 03:04:32;;;;;;;7.90;4.30;;;;;;;22.11;48.68;101442.44;4938069;28;124929;-83
2023/07/11 03:07:00;;;;;;;9.45;4.10;;;;;;;22.09;48.42;101439.00;4924141;28;115923;-83
2023/07/11 03:09:27;;;;;;;7.80;4.07;;;;;;;22.07;48.87;101438.28;4941224;28;115108;-83
2023/07/11 03:11:55;;;;;;;9.48;4.28;;;;;;;22.07;48.71;101438.28;4954217;28;123618;-83
2023/07/11 03:14:22;;;;;;;8.07;4.03;;;;;;;22.05;48.69;101427.63;4952940;28;123660;-83
2023/07/11 03:16:51;;;;;;;8.02;3.92;;;;;;;22.04;48.65;101419.66;4953832;28;115336;-83
2023/07/11 03:19:22;;;;;;;7.22;3.78;;;;;;;22.01;48.67;101425.31;4954067;28;116680;-83
2023/07/11 03:21:49;;;;;;;7.97;4.10;;;;;;;21.99;48.69;101421.91;4951821;28;124972;-84
2023/07/11 03:24:16;;;;;;;8.85;3.90;;;;;;;21.97;48.87;101419.34;4950841;28;123956;-83
2023/07/11 03:26:46;;;;;;;8.00;4.32;;;;;;;21.93;48.76;101418.72;4954289;28;114914;-83
2023/07/11 03:29:14;;;;;;;8.90;3.90;;;;;;;21.89;48.98;101411.03;4937281;28;112743;-84
2023/07/11 03:31:43;;;;;;;8.32;4.22;;;;;;;21.86;49.12;101411.28;4935784;28;123713;-83
2023/07/11 03:34:10;;;;;;;8.75;4.07;;;;;;;21.83;49.30;101415.09;4953386;28;125035;-84
2023/07/11 03:36:37;;;;;;;5.25;3.90;;;;;;;21.81;49.42;101414.34;4964705;28;115065;-84
2023/07/11 03:39:05;;;;;;;10.40;4.47;;;;;;;21.76;49.52;101411.19;4953866;28;113614;-83
2023/07/11 03:41:32;;;;;;;7.68;4.20;;;;;;;21.74;49.50;101413.19;4955641;28;123325;-84
2023/07/11 03:44:00;;;;;;;8.00;4.45;;;;;;;21.72;49.43;101412.44;4950195;28;125030;-85
2023/07/11 03:46:28;;;;;;;6.85;3.83;;;;;;;21.71;49.57;101408.03;4993571;28;115227;-84
2023/07/11 03:48:59;;;;;;;8.02;4.13;;;;;;;21.71;49.64;101413.41;4975473;28;113501;-84
2023/07/11 03:51:27;;;;;;;7.13;3.83;;;;;;;21.68;49.76;101414.53;4962966;28;122296;-84
2023/07/11 03:53:54;;;;;;;9.50;4.45;;;;;;;21.68;49.64;101408.28;4953565;28;123409;-84
2023/07/11 03:56:22;;;;;;;6.35;4.53;;;;;;;21.67;49.70;101406.56;4958432;28;114121;-84
2023/07/11 03:58:49;;;;;;;9.25;4.25;;;;;;;21.66;49.71;101404.84;4974947;28;113631;-84
2023/07/11 04:01:17;;;;;;;8.25;4.60;;;;;;;21.65;49.80;101404.00;4972565;28;123587;-84
2023/07/11 04:03:44;;;;;;;6.53;4.07;;;;;;;21.64;49.99;101401.44;4970495;28;123122;-83
2023/07/11 04:06:12;;;;;;;7.72;4.18;;;;;;;21.64;49.93;101406.81;4944324;28;114881;-84
2023/07/11 04:08:39;;;;;;;8.23;4.15;;;;;;;21.64;49.85;101393.34;4930813;28;113815;-84
2023/07/11 04:11:07;;;;;;;8.60;4.35;;;;;;;21.63;50.03;101397.03;4926585;28;124188;-83
2023/07/11 04:13:34;;;;;;;5.88;4.40;;;;;;;21.61;49.89;101396.31;4958580;28;122815;-83
2023/07/11 04:16:01;;;;;;;6.80;4.53;;;;;;;21.55;49.97;101393.13;4942414;28;113276;-83
2023/07/11 04:18:28;;;;;;;7.00;4.47;;;;;;;21.54;50.17;101394.09;4943487;28;113363;-84
2023/07/11 04:20:55;;;;;;;8.38;4.70;;;;;;;21.51;50.31;101397.06;4964658;28;125494;-83
2023/07/11 04:23:23;;;;;;;7.30;4.32;;;;;;;21.50;50.32;101389.94;4942027;28;124268;-84
2023/07/11 04:25:50;;;;;;;9.90;4.57;;;;;;;21.49;50.31;101387.38;4958990;28;114589;-84
2023/07/11 04:28:17;;;;;;;7.57;4.40;;;;;;;21.49;50.44;101385.56;4958518;28;112895;-82
2023/07/11 04:30:44;;;;;;;9.00;4.22;;;;;;;21.49;50.37;101382.88;4957808;28;123132;-83
2023/07/11 04:33:11;;;;;;;7.50;4.63;;;;;;;21.49;50.54;101382.88;4939832;28;122875;-83
2023/07/11 04:35:39;;;;;;;7.20;4.65;;;;;;;21.48;50.52;101381.13;4956950;28;115711;-84
2023/07/11 04:38:06;;;;;;;7.50;4.40;;;;;;;21.49;50.59;101382.88;4971007;28;113945;-83
2023/07/11 04:40:34;;;;;;;8.00;4.68;;;;;;;21.50;50.89;101379.16;4941719;28;122232;-83
2023/07/11 04:43:01;;;;;;;10.23;4.90;;;;;;;21.52;50.84;101377.19;4941377;28;125067;-83
2023/07/11 04:45:28;;;;;;;8.02;4.85;;;;;;;21.55;51.02;101370.72;4932411;28;114559;-83
2023/07/11 04:47:55;;;;;;;9.68;4.90;;;;;;;21.58;51.08;101376.69;4951320;28;113931;-83
2023/07/11 04:50:23;;;;;;;10.15;4.30;;;;;;;21.62;51.00;101360.25;4947523;28;125972;-84
2023/07/11 04:52:50;;;;;;;6.53;4.35;;;;;;;21.68;51.24;101362.44;4940865;28;124848;-83
2023/07/11 04:55:17;;;;;;;7.13;4.47;;;;;;;21.75;51.28;101360.94;4973423;28;115380;-83
2023/07/11 04:57:44;;;;;;;7.00;4.15;;;;;;;21.85;51.29;101351.09;4940270;28;112972;-83
2023/07/11 05:00:12;;;;;;;5.25;4.20;;;;;;;21.94;51.40;101361.13;4943691;28;123430;-83
2023/07/11 05:02:39;;;;;;;6.97;4.45;;;;;;;22.05;51.31;101356.63;4957289;28;122925;-84
2023/07/11 05:05:07;;;;;;;6.53;4.40;;;;;;;22.13;51.39;101354.13;4964367;28;114701;-84
2023/07/11 05:07:34;;;;;;;6.80;4.03;;;;;;;22.23;51.16;101356.91;4942988;28;113172;-84
2023/07/11 05:10:02;;;;;;;7.90;4.35;;;;;;;22.32;51.20;101351.59;4958614;28;122577;-83
2023/07/11 05:12:30;;;;;;;7.78;4.13;;;;;;;22.42;51.12;101353.50;4929098;28;122646;-83
2023/07/11 05:14:57;;;;;;;7.20;4.05;;;;;;;22.48;50.92;101347.56;4944049;28;113634;-83
2023/07/11 05:17:24;;;;;;;7.00;4.47;;;;;;;22.55;50.67;101346.03;4956453;28;113500;-83
2023/07/11 05:19:51;;;;;;;5.22;4.10;;;;;;;22.61;50.75;101337.38;4955185;28;122010;-83
2023/07/11 05:22:18;;;;;;;7.93;4.38;;;;;;;22.67;50.76;101338.69;4938860;28;123126;-83
2023/07/11 05:24:45;;;;;;;8.20;4.50;;;;;;;22.71;50.69;101338.25;4938837;28;115347;-83
2023/07/11 05:27:13;;;;;;;5.57;4.20;;;;;;;22.77;50.51;101325.22;4948999;28;114705;-83
2023/07/11 05:29:40;;;;;;;5.78;4.22;;;;;;;22.82;50.44;101322.97;4938322;28;125911;-84
2023/07/11 05:32:07;;;;;;;7.20;4.20;;;;;;;22.88;50.57;101322.41;4939721;28;123449;-83
2023/07/11 05:34:34;;;;;;;10.38;4.70;;;;;;;22.96;50.53;101314.47;4950379;28;113914;-83
2023/07/11 05:37:03;;;;;;;8.55;4.55;;;;;;;23.02;50.56;101313.94;4945250;28;114790;-83
2023/07/11 05:39:31;;;;;;;5.60;4.13;;;;;;;23.10;50.39;101314.09;4920386;28;124165;-83
2023/07/11 05:41:58;;;;;;;7.85;4.35;;;;;;;23.15;50.29;101313.72;4959907;28;124936;-83
2023/07/11 05:44:25;;;;;;;6.90;4.28;;;;;;;23.22;50.49;101313.97;4949141;28;115042;-85
2023/07/11 05:46:53;;;;;;;10.15;4.65;;;;;;;23.29;50.24;101309.72;4955385;28;116108;-83
2023/07/11 05:49:20;;;;;;;6.07;4.13;;;;;;;23.35;50.16;101309.16;4955020;28;125717;-83
2023/07/11 05:51:47;;;;;;;6.65;4.35;;;;;;;23.43;50.18;101301.22;4949989;28;123937;-83
2023/07/11 05:54:14;;;;;;;6.95;4.50;;;;;;;23.52;50.09;101304.91;4955944;28;114425;-83
2023/07/11 05:56:41;;;;;;;8.23;4.70;;;;;;;23.61;50.01;101308.59;4955142;28;113875;-83
2023/07/11 05:59:09;;;;;;;8.40;4.45;;;;;;;23.69;49.91;101311.44;4955268;28;122056;-83
2023/07/11 06:01:36;;;;;;;8.05;4.30;;;;;;;23.78;49.69;101304.31;4953699;28;123370;-83
2023/07/11 06:04:10;;;;;;;6.93;4.63;;;;;;;23.85;49.73;101295.50;4950048;28;115171;-83
2023/07/11 06:06:42;;;;;;;7.10;4.47;;;;;;;23.96;49.43;101296.34;4954935;28;113501;-83
2023/07/11 06:09:20;;;;;;;7.70;4.28;;;;;;;24.06;49.48;101291.78;4953546;28;124650;-83
2023/07/11 06:11:49;;;;;;;6.82;4.70;;;;;;;24.15;49.58;101285.47;4979152;28;122911;-83
2023/07/11 06:14:17;;;;;;;7.25;4.10;;;;;;;24.27;49.39;101284.28;4955084;28;113926;-83
2023/07/11 06:16:45;;;;;;;6.25;3.75;;;;;;;24.37;49.46;101286.09;4955955;28;113945;-83
2023/07/11 06:19:16;;;;;;;6.32;4.07;;;;;;;24.48;49.36;101285.91;4937921;28;125097;-85
2023/07/11 06:21:44;;;;;;;6.30;3.90;;;;;;;24.60;48.88;101284.78;4954440;28;124594;-84
2023/07/11 06:24:12;;;;;;;5.38;3.20;;;;;;;24.70;48.53;101273.88;4935408;28;113849;-85
2023/07/11 06:26:40;;;;;;;6.40;3.50;;;;;;;24.83;48.57;101274.38;4938604;28;114077;-83
2023/07/11 06:29:07;;;;;;;6.55;3.40;;;;;;;24.96;48.30;101279.44;4950762;28;123144;-83
2023/07/11 06:31:34;;;;;;;5.43;3.00;;;;;;;25.10;48.01;101279.91;4932256;28;124944;-83
2023/07/11 06:34:02;;;;;;;5.93;3.20;;;;;;;25.24;47.93;101282.09;4952863;28;115080;-84
2023/07/11 06:36:29;;;;;;;5.53;2.67;;;;;;;25.38;47.66;101273.44;4954919;28;115321;-83
2023/07/11 06:38:56;;;;;;;7.65;3.20;;;;;;;25.52;47.56;101268.47;4945793;28;125170;-83
2023/07/11 06:41:23;;;;;;;4.32;2.72;;;;;;;25.66;46.99;101276.06;4946645;28;124041;-83
2023/07/11 06:43:52;;;;;;;5.65;3.20;;;;;;;25.81;46.87;101274.47;4944427;28;114330;-82
2023/07/11 06:46:20;;;;;;;5.22;2.40;;;;;;;25.98;47.04;101263.78;4958402;28;115292;-84
2023/07/11 06:48:47;;;;;;;5.53;2.47;;;;;;;26.12;46.58;101265.88;4950821;28;124874;-83
2023/07/11 06:51:14;;;;;;;5.82;2.70;;;;;;;26.29;46.69;101260.53;4979638;28;123413;-84
2023/07/11 06:53:41;;;;;;;6.28;2.95;;;;;;;26.45;46.16;101268.78;4959329;28;115609;-83
2023/07/11 06:56:09;;;;;;;6.35;2.70;;;;;;;26.63;46.07;101259.69;4979308;28;113505;-83
2023/07/11 06:58:36;;;;;;;6.57;2.75;;;;;;;26.79;45.42;101257.88;4947423;28;125712;-83
2023/07/11 07:01:06;;;;;;;4.78;2.80;;;;;;;26.93;44.90;101253.66;4957004;28;123632;-84
2023/07/11 07:03:45;;;;;;;5.22;2.50;;;;;;;27.08;44.63;101261.19;4944908;28;113943;-84
2023/07/11 07:06:13;;;;;;;4.25;2.67;;;;;;;27.19;44.59;101258.13;4952733;28;113710;-84
2023/07/11 07:08:41;;;;;;;6.25;2.95;;;;;;;27.31;44.43;101251.41;4939874;28;123477;-84
2023/07/11 07:11:09;;;;;;;5.80;2.60;;;;;;;27.45;44.48;101246.28;4954317;28;126512;-84
2023/07/11 07:13:37;;;;;;;9.13;3.33;;;;;;;27.60;44.35;101244.59;4964629;28;112554;-83
2023/07/11 07:16:14;;;;;;;5.35;2.35;;;;;;;27.76;44.00;101247.31;4937934;28;111907;-83
2023/07/11 07:18:43;;;;;;;5.60;2.38;;;;;;;27.93;43.95;101247.28;4949343;28;123196;-83
2023/07/11 07:21:10;;;;;;;4.13;2.25;;;;;;;28.07;43.71;101249.31;4948226;28;121921;-84
2023/07/11 07:23:38;;;;;;;3.80;2.45;;;;;;;28.23;43.42;101250.28;4933429;28;114350;-85
2023/07/11 07:26:05;;;;;;;4.95;2.47;;;;;;;28.39;42.85;101249.34;4941057;28;114616;-84
2023/07/11 07:28:37;;;;;;;5.20;2.60;;;;;;;28.53;42.83;101246.75;4945494;28;123108;-84
2023/07/11 07:31:08;;;;;;;7.28;2.55;;;;;;;28.68;42.50;101254.19;4942391;28;124749;-84
2023/07/11 07:33:35;;;;;;;5.35;2.60;;;;;;;28.77;42.06;101247.69;4941973;28;116053;-85
2023/07/11 07:36:05;;;;;;;6.18;2.72;;;;;;;28.90;41.96;101253.41;4940382;28;113789;-85
2023/07/11 07:38:33;;;;;;;4.57;2.60;;;;;;;29.03;41.67;101251.97;4925431;28;124131;-85
2023/07/11 07:41:05;;;;;;;6.45;2.80;;;;;;;29.14;41.50;101243.41;4946504;28;123825;-86
2023/07/11 07:43:34;;;;;;;5.45;2.50;;;;;;;29.28;41.42;101250.78;4947966;28;115537;-85
2023/07/11 07:46:03;;;;;;;4.97;2.45;;;;;;;29.41;41.10;101243.88;4948262;28;115192;-85
2023/07/11 07:48:30;;;;;;;4.30;2.17;;;;;;;29.54;40.90;101238.63;4931918;28;124756;-86
2023/07/11 07:51:07;;;;;;;4.63;2.30;;;;;;;29.67;40.33;101243.47;4935039;28;123049;-85
2023/07/11 07:53:35;;;;;;;4.07;2.38;;;;;;;29.76;40.34;101230.59;4940705;28;113107;-85
2023/07/11 07:56:08;;;;;;;5.25;2.55;;;;;;;29.84;39.76;101247.75;4913740;28;114622;-85
2023/07/11 07:58:36;;;;;;;5.53;2.42;;;;;;;29.90;39.65;101224.31;4950297;28;124782;-85
2023/07/11 08:01:11;;;;;;;5.93;2.55;;;;;;;30.00;39.42;101222.13;4945136;28;124822;-85
2023/07/11 08:03:39;;;;;;;5.20;2.17;;;;;;;30.07;39.26;101227.72;4923320;28;114242;-85
2023/07/11 08:06:07;;;;;;;7.13;2.47;;;;;;;30.16;39.09;101228.44;4943255;28;115358;-85
2023/07/11 08:08:44;;;;;;;4.03;2.28;;;;;;;30.27;38.63;101219.75;4939783;28;125043;-85
2023/07/11 08:11:14;;;;;;;3.88;1.92;;;;;;;30.35;38.59;101225.19;4951848;28;123246;-85
2023/07/11 08:13:42;;;;;;;7.30;2.45;;;;;;;30.40;38.81;101222.72;4952504;28;115304;-86
2023/07/11 08:16:12;;;;;;;3.45;2.00;;;;;;;30.51;39.11;101223.25;4950567;28;115518;-85
2023/07/11 08:18:56;;;;;;;5.60;2.38;;;;;;;30.64;38.56;101223.44;4951629;28;124487;-83
2023/07/11 08:21:23;;;;;;;4.65;2.10;;;;;;;30.72;38.26;101209.63;4945506;28;125963;-85
2023/07/11 08:23:51;;;;;;;3.70;2.15;;;;;;;30.80;38.14;101206.78;4933731;28;113432;-85
2023/07/11 08:26:19;;;;;;;7.53;2.58;;;;;;;30.86;37.76;101210.63;4940876;28;115435;-85
2023/07/11 08:28:47;;;;;;;5.38;1.83;;;;;;;30.91;37.94;101212.81;4950924;28;123477;-86
2023/07/11 08:31:15;;;;;;;3.47;2.08;;;;;;;30.99;37.51;101209.97;4950506;28;124939;-85
2023/07/11 08:33:43;;;;;;;3.97;2.00;;;;;;;31.04;37.29;101204.72;4937821;28;113187;-85
2023/07/11 08:36:10;;;;;;;3.60;2.10;;;;;;;31.12;37.10;101204.63;4941424;28;115056;-85
2023/07/11 08:38:37;;;;;;;3.88;1.73;;;;;;;31.18;36.75;101203.00;4937087;28;124298;-86
2023/07/11 08:41:17;;;;;;;4.25;2.10;;;;;;;31.20;36.11;101201.72;4933698;28;125146;-84
2023/07/11 08:43:46;;;;;;;4.20;1.90;;;;;;;31.26;36.37;101199.25;4943321;28;114109;-86
2023/07/11 08:46:17;;;;;;;5.15;1.80;;;;;;;31.35;36.19;101203.56;4934272;28;114234;-85
2023/07/11 08:48:59;;;;;;;3.47;1.80;;;;;;;31.42;36.25;101199.00;4931641;28;124707;-85
2023/07/11 08:51:32;;;;;;;3.40;2.03;;;;;;;31.46;35.83;101194.81;4931668;28;123711;-85
2023/07/11 08:54:22;;;;;;;6.03;2.10;;;;;;;31.50;36.01;101190.66;4933989;28;112679;-87
2023/07/11 08:56:50;;;;;;;3.85;1.80;;;;;;;31.53;35.48;101190.25;4947708;28;115037;-85
2023/07/11 08:59:43;;;;;;;5.53;1.98;;;;;;;31.56;35.53;101184.38;4948801;28;124174;-85
2023/07/11 09:02:20;;;;;;;3.70;1.70;;;;;;;31.61;35.33;101181.88;4952950;28;124220;-85
2023/07/11 09:04:52;;;;;;;4.88;2.03;;;;;;;31.65;35.48;101186.94;4961349;28;115232;-85
2023/07/11 09:07:38;;;;;;;6.18;1.90;;;;;;;31.69;35.61;101182.78;4958541;28;114505;-86
2023/07/11 09:10:44;;;;;;;5.38;1.98;;;;;;;31.73;35.29;101178.59;4970297;28;123497;-83
2023/07/11 09:13:54;;;;;;;4.40;1.70;;;;;;;31.79;34.98;101175.03;4911843;28;123631;-85
2023/07/11 09:16:32;;;;;;;3.13;1.60;;;;;;;31.78;35.08;101176.09;4943908;28;114624;-86
2023/07/11 09:19:24;;;;;;;4.00;1.80;;;;;;;31.71;34.97;101175.22;4960327;28;113148;-85
2023/07/11 09:22:00;;;;;;;3.75;1.65;;;;;;;31.65;35.06;101165.03;4937245;28;123039;-86
2023/07/11 09:24:46;;;;;;;4.18;1.80;;;;;;;31.61;34.87;101159.13;4920697;28;123385;-85
2023/07/11 09:27:44;;;;;;;6.00;1.85;;;;;;;31.61;34.97;101170.09;4937871;28;114098;-86
2023/07/11 09:30:19;;;;;;;4.82;1.85;;;;;;;31.59;34.46;101167.56;4948822;28;113883;-86
2023/07/11 09:32:47;;;;;;;5.50;1.73;;;;;;;31.61;34.42;101170.94;4932415;28;124301;-86
2023/07/11 09:35:17;;;;;;;4.95;1.90;;;;;;;31.66;34.59;101166.75;4916811;28;124336;-85
2023/07/11 09:37:48;;;;;;;5.00;2.00;;;;;;;31.75;34.58;101171.00;4939604;28;115263;-85
2023/07/11 09:40:34;;;;;;;4.53;1.90;;;;;;;31.87;34.45;101171.28;4948222;28;114451;-86
2023/07/11 09:43:03;;;;;;;4.80;2.03;;;;;;;31.94;33.41;101156.56;4950851;28;123366;-85
2023/07/11 09:45:35;;;;;;;4.60;1.88;;;;;;;31.96;32.97;101159.97;4935132;28;125695;-85
2023/07/11 09:48:08;;;;;;;6.72;1.88;;;;;;;32.03;33.35;101167.41;4969125;28;114075;-85
2023/07/11 09:50:59;;;;;;;4.85;2.03;;;;;;;32.11;33.08;101164.50;4936335;28;114791;-85
2023/07/11 09:53:31;;;;;;;6.33;1.90;;;;;;;32.19;33.52;101167.91;4950735;28;123553;-85
2023/07/11 09:56:00;;;;;;;4.75;1.90;;;;;;;32.24;33.00;101148.09;4953570;28;124773;-85
2023/07/11 09:58:40;;;;;;;3.03;1.85;;;;;;;32.28;33.15;101149.38;4953834;28;116256;-85
2023/07/11 10:01:17;;;;;;;5.45;1.90;;;;;;;32.35;32.56;101155.72;4937923;28;115564;-85
2023/07/11 10:03:47;;;;;;;3.33;1.73;;;;;;;32.38;32.25;101149.84;4938039;28;125345;-85
2023/07/11 10:06:31;;;;;;;4.35;1.52;;;;;;;32.40;32.69;101145.00;4936465;28;125868;-86
2023/07/11 10:09:26;;;;;;;3.72;1.80;;;;;;;32.47;33.19;101141.44;4939967;28;115573;-85
2023/07/11 10:12:01;;;;;;;4.50;1.98;;;;;;;32.53;32.89;101140.59;4932704;28;113285;-85
2023/07/11 10:14:38;;;;;;;4.05;1.73;;;;;;;32.58;32.43;101132.63;4935742;28;125339;-85
2023/07/11 10:17:25;;;;;;;4.95;2.08;;;;;;;32.62;32.86;101133.91;4933598;28;124544;-85
2023/07/11 10:19:58;;;;;;;4.00;2.15;;;;;;;32.62;32.08;101135.81;4939901;28;114936;-86
2023/07/11 10:22:46;;;;;;;3.33;2.00;;;;;;;32.57;32.27;101130.94;4920725;28;114797;-86
2023/07/11 10:25:27;;;;;;;4.07;1.98;;;;;;;32.56;32.12;101129.22;4918710;28;124372;-86
2023/07/11 10:27:59;;;;;;;4.28;2.10;;;;;;;32.56;32.02;101134.69;4940327;28;124669;-86
2023/07/11 10:30:32;;;;;;;8.13;2.30;;;;;;;32.56;31.41;101129.22;4949603;28;115337;-85
2023/07/11 10:33:14;;;;;;;4.43;2.30;;;;;;;32.55;31.38;101122.03;4958781;28;113949;-86
2023/07/11 10:35:52;;;;;;;4.85;2.67;;;;;;;32.52;31.46;101131.53;4934013;28;124447;-85
2023/07/11 10:38:25;;;;;;;3.67;2.22;;;;;;;32.51;31.57;101126.25;4938765;28;125437;-85
2023/07/11 10:40:58;;;;;;;4.70;2.50;;;;;;;32.50;31.90;101119.09;4941871;28;113933;-85
2023/07/11 10:43:32;;;;;;;6.57;2.55;;;;;;;32.52;31.93;101119.72;4938662;28;114000;-85
2023/07/11 10:46:05;;;;;;;3.90;2.25;;;;;;;32.55;31.94;101111.06;4925820;28;124928;-86
2023/07/11 10:48:46;;;;;;;3.13;2.17;;;;;;;32.57;32.02;101117.25;4927294;28;124998;-85
2023/07/11 10:51:33;;;;;;;5.72;2.40;;;;;;;32.62;32.13;101122.94;4952687;28;115158;-86
2023/07/11 10:54:08;;;;;;;6.60;2.67;;;;;;;32.67;32.03;101106.69;4937262;28;115964;-84
2023/07/11 10:56:49;;;;;;;;;;;;;;;32.67;32.91;101106.69;4925723;28;125249;-84
2023/07/11 10:59:22;;;;;;;4.53;2.55;;;;;;;32.67;31.94;101092.97;4953341;28;123659;-84
2023/07/11 11:01:55;;;;;;;4.75;2.33;;;;;;;32.71;32.35;101098.91;4955855;28;113392;-84
2023/07/11 11:05:02;;;;;;;5.95;2.20;;;;;;;32.78;32.49;101095.09;4950691;28;113993;-85
2023/07/11 11:07:39;;;;;;;5.65;2.25;;;;;;;32.86;33.13;101095.97;4973596;28;124570;-87
2023/07/11 11:10:27;;;;;;;6.00;2.00;;;;;;;32.97;32.12;101095.31;4949517;28;123197;-86
2023/07/11 11:13:15;;;;;;;5.85;2.17;;;;;;;33.05;32.08;101095.09;4961373;28;115259;-86
2023/07/11 11:15:56;;;;;;;6.35;2.03;;;;;;;33.12;32.47;101090.47;4953456;28;113811;-85
2023/07/11 11:18:50;;;;;;;5.43;2.10;;;;;;;33.16;32.14;101080.75;4932984;28;124028;-85
2023/07/11 11:21:38;;;;;;;4.00;2.08;;;;;;;33.23;31.32;101090.88;4944875;28;123302;-85
2023/07/11 11:24:37;;;;;;;5.10;2.05;;;;;;;33.24;31.58;101076.94;4947252;28;114459;-85
2023/07/11 11:27:29;;;;;;;4.47;1.90;;;;;;;33.27;32.26;101075.69;4941637;28;114939;-85
2023/07/11 11:30:02;;;;;;;3.78;2.10;;;;;;;33.35;32.18;101078.22;4948477;28;124425;-85
2023/07/11 11:32:49;;;;;;;4.38;2.08;;;;;;;33.42;31.91;101079.03;4946608;28;124914;-85
2023/07/11 11:35:19;;;;;;;3.63;2.22;;;;;;;33.48;31.72;101072.69;4928339;28;114652;-82